Time;durP1;ratioP1;P1;durP2;ratioP2;P2;SDS_P1;SDS_P2;PMS_P1;PMS_P2;Temp;Humidity;BMP_temperature;BMP_pressure;BME280_temperature;BME280_humidity;BME280_pressure;Samples;Min_cycle;Max_cycle;Signal;HPM_P1;HPM_P2
2022/11/05 00:16:53;;;;;;;;;38.75;33.00;;;;;20.23;51.99;98416.78;4874206;29;8893;-76
2022/11/05 00:19:22;;;;;;;;;37.25;33.75;;;;;20.23;52.25;98414.16;4858867;29;8941;-75
2022/11/05 00:27:37;;;;;;;;;35.25;31.25;;;;;20.39;51.95;98400.84;4855667;29;8915;-78
2022/11/05 00:30:08;;;;;;;;;34.25;30.00;;;;;20.41;52.18;98417.50;4840785;29;8873;-76
2022/11/05 00:32:39;;;;;;;;;35.40;31.00;;;;;20.44;52.29;98419.13;4855779;29;8908;-74
2022/11/05 00:35:08;;;;;;;;;33.50;32.00;;;;;20.39;52.07;98400.84;4840629;29;8901;-76
2022/11/05 00:37:37;;;;;;;;;34.00;32.00;;;;;20.44;52.29;98397.94;4855947;29;8880;-77
2022/11/05 00:40:06;;;;;;;;;31.00;29.20;;;;;20.39;52.27;98418.53;4865525;29;8882;-75
2022/11/05 00:45:21;;;;;;;;;36.25;32.25;;;;;20.41;52.26;98406.06;4932371;29;8867;-75
2022/11/05 00:50:38;;;;;;;;;34.25;31.50;;;;;20.42;52.66;98416.56;4946709;28;8861;-75
2022/11/05 00:53:07;;;;;;;;;27.60;26.60;;;;;20.34;51.94;98405.59;4969295;28;8861;-76
2022/11/05 00:55:38;;;;;;;;;29.40;28.40;;;;;20.07;53.56;98402.75;5012912;28;8846;-78
2022/11/05 00:58:09;;;;;;;;;35.60;27.80;;;;;19.70;54.05;98393.38;5013790;28;8851;-76
2022/11/05 01:00:39;;;;;;;;;25.00;25.00;;;;;19.72;53.85;98400.31;5013320;28;8878;-76
2022/11/05 01:03:11;;;;;;;;;23.80;23.80;;;;;19.59;54.97;98392.19;5049369;28;8845;-77
2022/11/05 01:05:42;;;;;;;;;29.40;27.40;;;;;19.74;54.63;98390.50;5049918;28;8976;-75
2022/11/05 01:08:11;;;;;;;;;33.00;28.80;;;;;19.80;54.44;98387.50;5049999;28;8871;-76
2022/11/05 01:10:41;;;;;;;;;29.60;27.80;;;;;19.80;54.25;98384.88;5040203;28;8847;-75
2022/11/05 01:13:10;;;;;;;;;30.50;28.25;;;;;19.80;53.99;98369.00;5030367;28;8871;-74
2022/11/05 01:15:41;;;;;;;;;25.00;25.00;;;;;19.81;53.81;98368.06;5030450;28;8974;-75
2022/11/05 01:18:11;;;;;;;;;27.00;27.00;;;;;19.91;54.06;98363.09;5029242;28;8941;-74
2022/11/05 01:20:40;;;;;;;;;31.60;29.60;;;;;19.98;53.24;98358.28;5030064;28;9045;-76
2022/11/05 01:23:09;;;;;;;;;32.00;28.40;;;;;20.03;53.49;98351.78;5033951;28;8844;-75
2022/11/05 01:25:41;;;;;;;;;26.60;25.60;;;;;20.04;52.75;98345.56;5014570;28;8852;-75
2022/11/05 01:28:10;;;;;;;;;28.80;27.00;;;;;19.90;52.13;98336.72;5064383;28;8840;-76
2022/11/05 01:30:39;;;;;;;;;24.20;22.40;;;;;19.80;53.54;98331.94;5064957;28;9002;-74
2022/11/05 01:33:07;;;;;;;;;26.40;24.40;;;;;19.73;53.79;98320.00;5048049;28;8849;-76
2022/11/05 01:35:39;;;;;;;;;28.60;26.20;;;;;19.80;53.01;98313.44;4982137;28;8943;-76
2022/11/05 01:38:08;;;;;;;;;30.40;27.60;;;;;19.82;53.34;98311.56;5048650;28;8904;-75
2022/11/05 01:40:36;;;;;;;;;27.00;23.00;;;;;19.75;51.99;98304.91;5011557;28;8903;-78
2022/11/05 01:43:14;;;;;;;;;26.60;24.60;;;;;19.60;52.17;98300.47;5012416;28;8849;-76
2022/11/05 01:45:44;;;;;;;;;27.60;25.40;;;;;19.44;52.39;98301.34;5036188;28;8862;-76
2022/11/05 01:48:17;;;;;;;;;23.80;23.60;;;;;19.22;53.45;98306.16;4981866;28;8844;-76
2022/11/05 01:50:53;;;;;;;;;22.60;22.60;;;;;19.20;53.58;98306.22;4988635;28;8880;-77
2022/11/05 01:53:29;;;;;;;;;24.80;23.00;;;;;19.25;53.94;98325.31;4980976;28;8870;-75
2022/11/05 01:56:03;;;;;;;;;24.00;21.60;;;;;19.13;55.94;98319.88;4973028;28;8866;-74
2022/11/05 01:58:37;;;;;;;;;30.00;27.80;;;;;19.33;55.86;98326.69;5015892;28;8944;-76
2022/11/05 02:01:06;;;;;;;;;30.80;30.60;;;;;19.41;55.72;98341.22;4986757;28;8873;-74
2022/11/05 02:03:35;;;;;;;;;31.50;28.75;;;;;19.43;55.88;98341.09;4995614;28;8865;-76
2022/11/05 02:06:08;;;;;;;;;33.25;30.75;;;;;19.51;55.65;98349.47;5014222;28;8874;-75
2022/11/05 02:08:50;;;;;;;;;32.20;30.40;;;;;19.48;55.94;98350.47;4990681;28;8951;-75
2022/11/05 02:11:20;;;;;;;;;33.75;31.50;;;;;19.51;56.01;98356.53;5015312;28;8872;-75
2022/11/05 02:13:49;;;;;;;;;37.25;34.25;;;;;19.44;56.30;98362.16;5058859;28;8873;-77
2022/11/05 02:16:35;;;;;;;;;32.75;31.00;;;;;19.58;56.15;98358.72;5043572;28;8852;-74
2022/11/05 02:19:24;;;;;;;;;33.60;30.80;;;;;19.65;56.03;98359.25;5027185;28;8946;-76
2022/11/05 02:22:22;;;;;;;;;34.00;31.75;;;;;19.75;55.93;98367.53;4986889;28;8863;-76
2022/11/05 02:25:16;;;;;;;;;31.25;29.50;;;;;19.79;55.62;98366.44;5045692;28;8876;-75
2022/11/05 02:28:07;;;;;;;;;36.00;33.25;;;;;19.70;56.21;98365.16;5047149;28;9630;-76
2022/11/05 02:30:46;;;;;;;;;43.00;36.50;;;;;19.67;56.45;98362.66;5049715;28;8853;-75
2022/11/05 02:33:29;;;;;;;;;45.50;38.75;;;;;19.65;56.98;98367.19;5048020;28;8879;-77
2022/11/05 02:36:18;;;;;;;;;51.00;43.00;;;;;19.60;57.32;98371.88;5018613;28;8857;-78
2022/11/05 02:38:59;;;;;;;;;51.25;40.50;;;;;19.38;58.59;98373.09;5023365;28;8956;-76
2022/11/05 02:41:35;;;;;;;;;54.25;41.00;;;;;19.33;58.48;98369.84;5062999;28;8853;-76
2022/11/05 02:44:18;;;;;;;;;53.00;43.50;;;;;19.46;58.33;98372.66;5053810;28;8907;-74
2022/11/05 02:46:57;;;;;;;;;50.25;41.75;;;;;19.48;58.31;98373.44;5044784;28;8872;-76
2022/11/05 02:49:40;;;;;;;;;53.25;44.00;;;;;19.47;58.13;98377.88;4977824;28;9638;-74
2022/11/05 02:52:16;;;;;;;;;56.50;46.00;;;;;19.42;58.40;98384.34;5045608;28;8853;-75
2022/11/05 02:54:54;;;;;;;;;56.00;46.00;;;;;19.46;58.64;98386.72;5027011;28;8861;-74
2022/11/05 02:57:22;;;;;;;;;51.00;43.25;;;;;19.45;58.69;98389.44;5046882;28;8852;-74
2022/11/05 03:00:00;;;;;;;;;57.50;45.50;;;;;19.56;58.74;98386.22;5062156;28;8861;-77
2022/11/05 03:02:30;;;;;;;;;58.25;46.25;;;;;19.44;58.89;98388.59;5058006;28;8861;-77
2022/11/05 03:05:00;;;;;;;;;60.50;48.25;;;;;19.45;58.85;98395.63;4976458;28;8859;-74
2022/11/05 03:07:38;;;;;;;;;61.75;50.50;;;;;19.46;59.28;98404.38;5058160;28;8869;-75
2022/11/05 03:10:39;;;;;;;;;60.75;49.25;;;;;19.39;59.44;98401.22;5046179;28;9665;-77
2022/11/05 03:13:17;;;;;;;;;62.50;49.00;;;;;19.00;60.68;98407.75;5042185;28;8859;-74
2022/11/05 03:15:56;;;;;;;;;61.25;50.25;;;;;18.97;60.87;98404.41;5027222;28;8868;-76
2022/11/05 03:18:36;;;;;;;;;63.00;49.25;;;;;19.03;60.89;98404.06;5043503;28;8933;-74
2022/11/05 03:21:09;;;;;;;;;59.00;48.25;;;;;19.08;60.55;98410.81;5046766;28;8865;-74
2022/11/05 03:23:44;;;;;;;;;62.75;49.25;;;;;19.09;60.63;98412.53;5047848;28;8857;-76
2022/11/05 03:26:18;;;;;;;;;58.50;47.75;;;;;19.06;60.59;98409.22;5050666;28;8875;-75
2022/11/05 03:28:56;;;;;;;;;57.50;46.75;;;;;19.11;60.35;98415.09;5050434;28;8903;-75
2022/11/05 03:31:27;;;;;;;;;59.50;47.75;;;;;19.08;60.15;98429.31;5050321;28;8897;-74
2022/11/05 03:33:59;;;;;;;;;57.50;46.75;;;;;18.92;60.79;98417.84;5062694;28;9065;-73
2022/11/05 03:36:32;;;;;;;;;56.25;44.50;;;;;18.85;60.79;98434.97;5079641;28;8888;-74
2022/11/05 03:39:06;;;;;;;;;52.25;43.25;;;;;18.78;60.80;98431.75;5018526;28;8859;-74
2022/11/05 03:41:38;;;;;;;;;50.25;40.75;;;;;18.79;60.97;98436.13;5032563;28;8976;-75
2022/11/05 03:44:10;;;;;;;;;53.50;43.75;;;;;18.83;60.88;98431.56;5032864;28;8886;-77
2022/11/05 03:46:44;;;;;;;;;50.00;41.25;;;;;18.89;60.89;98428.59;4998606;28;8853;-78
2022/11/05 03:49:19;;;;;;;;;45.75;38.50;;;;;19.01;60.34;98437.66;5048562;28;8883;-76
2022/11/05 03:51:53;;;;;;;;;52.50;43.00;;;;;18.89;60.50;98439.16;5048991;28;8864;-73
2022/11/05 03:54:22;;;;;;;;;45.50;38.00;;;;;18.86;60.76;98441.94;5049951;28;8845;-75
2022/11/05 03:57:01;;;;;;;;;47.25;39.75;;;;;18.84;60.88;98444.66;5013791;28;8953;-74
2022/11/05 03:59:32;;;;;;;;;43.75;37.50;;;;;18.86;60.80;98449.88;5015686;28;8836;-74
2022/11/05 04:02:02;;;;;;;;;46.75;39.00;;;;;18.76;60.92;98451.28;5012425;28;8844;-75
2022/11/05 04:04:33;;;;;;;;;51.00;41.00;;;;;18.82;60.75;98456.25;4982689;28;8894;-76
2022/11/05 04:15:19;;;;;;;;;47.00;39.50;;;;;18.99;60.47;98484.44;5017031;28;8875;-76
2022/11/05 04:17:47;;;;;;;;;46.00;37.75;;;;;18.99;60.52;98493.22;4997156;28;8981;-76
2022/11/05 04:25:52;;;;;;;;;60.50;48.75;;;;;18.87;61.18;98501.78;5051465;28;8832;-76
2022/11/05 04:30:17;;;;;;;;;51.25;43.25;;;;;18.65;61.82;98505.47;5060985;28;8855;-74
2022/11/05 04:31:08;;;;;;;;;39.75;36.00;;;;;18.59;62.11;98518.16;5062556;28;8875;-75
2022/11/05 04:33:36;;;;;;;;;42.50;37.50;;;;;18.66;61.95;98525.69;5048894;28;9658;-75
2022/11/05 04:36:07;;;;;;;;;36.25;33.25;;;;;18.66;61.80;98525.69;5046442;28;9597;-74
2022/11/05 04:38:36;;;;;;;;;37.50;33.00;;;;;18.68;62.16;98534.38;5049506;28;8966;-74
2022/11/05 04:41:13;;;;;;;;;34.75;31.25;;;;;18.74;62.13;98535.00;5020731;28;8849;-74
2022/11/05 04:43:42;;;;;;;;;40.25;34.50;;;;;18.63;62.04;98536.38;5041308;28;8882;-75
2022/11/05 04:46:11;;;;;;;;;112.00;104.75;;;;;18.62;62.34;98537.34;5023423;28;8839;-76
2022/11/05 04:48:39;;;;;;;;;35.25;32.00;;;;;18.67;62.24;98535.28;5061352;28;11586;-76
2022/11/05 04:51:09;;;;;;;;;37.00;31.25;;;;;18.68;62.22;98537.03;5049280;28;9440;-74
2022/11/05 04:53:38;;;;;;;;;37.00;33.00;;;;;18.63;62.30;98530.25;5013410;28;8891;-76
2022/11/05 04:56:11;;;;;;;;;36.25;32.00;;;;;18.65;62.29;98539.81;5049131;28;8891;-75
2022/11/05 04:58:40;;;;;;;;;32.00;30.40;;;;;18.62;62.08;98533.81;5047590;28;8869;-74
2022/11/05 05:01:12;;;;;;;;;33.60;32.00;;;;;18.68;62.23;98538.81;5034515;28;8857;-75
2022/11/05 05:03:41;;;;;;;;;40.25;33.75;;;;;18.65;61.97;98529.22;5025942;28;8864;-78
2022/11/05 05:06:11;;;;;;;;;58.50;45.75;;;;;18.69;62.18;98522.91;5045946;28;8857;-73
2022/11/05 05:08:40;;;;;;;;;32.00;31.00;;;;;18.74;61.90;98525.28;4996945;28;8851;-77
2022/11/05 05:11:12;;;;;;;;;40.60;34.00;;;;;18.63;61.92;98517.91;5045504;28;8875;-74
2022/11/05 05:13:40;;;;;;;;;34.25;31.50;;;;;18.41;62.69;98526.06;5045361;28;9046;-74
2022/11/05 05:16:16;;;;;;;;;33.50;32.00;;;;;18.20;63.15;98503.31;5049061;28;8879;-73
2022/11/05 05:18:44;;;;;;;;;32.20;31.20;;;;;18.16;63.30;98492.06;5050025;28;8868;-77
2022/11/05 05:24:03;;;;;;;;;29.80;29.00;;;;;18.28;63.19;98472.16;5024497;28;8855;-75
2022/11/05 05:26:31;;;;;;;;;30.00;27.60;;;;;18.28;63.21;98458.97;5051522;28;8873;-74
2022/11/05 05:29:00;;;;;;;;;33.00;31.00;;;;;18.37;62.37;98462.91;5009397;28;8856;-75
2022/11/05 05:31:29;;;;;;;;;30.75;30.50;;;;;18.36;62.73;98466.50;4993954;28;8871;-75
2022/11/05 05:33:57;;;;;;;;;42.00;35.00;;;;;18.37;62.63;98474.31;5031607;28;9630;-76
2022/11/05 05:36:28;;;;;;;;;38.50;33.75;;;;;18.34;62.92;98482.41;5026913;28;8898;-74
2022/11/05 05:38:56;;;;;;;;;36.40;32.40;;;;;18.34;62.98;98479.75;5015835;28;8837;-76
2022/11/05 05:41:25;;;;;;;;;35.50;32.50;;;;;18.34;62.70;98468.34;5027966;28;8953;-76
2022/11/05 05:43:54;;;;;;;;;35.25;32.00;;;;;18.28;62.80;98465.09;5044928;28;9150;-75
2022/11/05 05:46:23;;;;;;;;;39.60;33.40;;;;;18.23;62.81;98461.81;4980022;28;8857;-76
2022/11/05 05:48:52;;;;;;;;;34.00;32.50;;;;;18.23;62.90;98458.31;5028430;28;8873;-75
2022/11/05 05:51:21;;;;;;;;;38.80;34.20;;;;;18.18;63.12;98461.16;5003879;28;8852;-75
2022/11/05 05:53:52;;;;;;;;;30.00;30.00;;;;;18.08;63.41;98457.28;5044907;28;8887;-75
2022/11/05 05:56:21;;;;;;;;;41.00;35.25;;;;;18.10;63.37;98469.47;5027430;28;8863;-75
2022/11/05 05:58:50;;;;;;;;;35.50;33.00;;;;;18.05;63.48;98465.34;5011512;28;8946;-74
2022/11/05 06:01:19;;;;;;;;;37.00;34.75;;;;;18.00;63.79;98468.22;5031546;28;8852;-72
2022/11/05 06:03:49;;;;;;;;;38.75;34.25;;;;;17.96;63.98;98478.97;5011355;28;8979;-74
2022/11/05 06:06:19;;;;;;;;;43.25;35.25;;;;;17.94;64.11;98476.44;5030919;28;8848;-75
2022/11/05 06:08:48;;;;;;;;;42.00;37.75;;;;;17.98;64.00;98491.19;5037753;28;8853;-77
2022/11/05 06:11:18;;;;;;;;;46.25;37.50;;;;;17.88;64.28;98480.22;5041099;28;8880;-75
2022/11/05 06:13:47;;;;;;;;;48.00;40.00;;;;;17.98;64.18;98485.06;5049891;28;8988;-75
2022/11/05 06:16:18;;;;;;;;;51.25;41.00;;;;;18.00;64.02;98489.31;5061949;28;8899;-76
2022/11/05 06:18:47;;;;;;;;;44.50;38.00;;;;;17.99;64.10;98492.03;5066206;28;8869;-75
2022/11/05 06:21:18;;;;;;;;;49.75;41.25;;;;;17.91;64.48;98502.94;5031888;28;8890;-74
2022/11/05 06:23:47;;;;;;;;;45.75;38.25;;;;;17.92;64.72;98502.03;5007859;28;8892;-76
2022/11/05 06:26:18;;;;;;;;;48.00;40.75;;;;;18.00;64.60;98514.84;5037899;28;8859;-75
2022/11/05 06:28:47;;;;;;;;;47.50;40.50;;;;;17.99;64.61;98513.13;5047168;28;8877;-76
2022/11/05 06:31:16;;;;;;;;;50.00;38.00;;;;;18.08;63.96;98512.69;5042101;28;8865;-74
2022/11/05 06:33:46;;;;;;;;;47.25;41.25;;;;;18.17;63.81;98506.97;5043732;28;8976;-76
2022/11/05 06:36:18;;;;;;;;;50.25;41.75;;;;;18.31;63.72;98509.78;5047771;28;8857;-75
2022/11/05 06:38:46;;;;;;;;;49.50;41.75;;;;;18.36;63.21;98512.22;5046789;28;8876;-76
2022/11/05 06:41:15;;;;;;;;;50.75;42.75;;;;;18.39;62.91;98509.44;5012650;28;8837;-76
2022/11/05 06:43:45;;;;;;;;;43.50;38.25;;;;;18.27;63.33;98518.78;5036285;28;8894;-75
2022/11/05 06:46:14;;;;;;;;;50.25;39.25;;;;;18.39;63.14;98521.75;5043117;28;8843;-78
2022/11/05 06:48:42;;;;;;;;;48.00;41.25;;;;;18.42;63.09;98527.75;5035546;28;8852;-75
2022/11/05 06:51:11;;;;;;;;;53.75;41.75;;;;;18.50;63.08;98528.22;5044978;28;8864;-76
2022/11/05 06:53:39;;;;;;;;;51.50;40.25;;;;;18.56;62.79;98534.97;5049094;28;8853;-74
2022/11/05 06:56:09;;;;;;;;;52.00;42.50;;;;;18.60;62.63;98538.31;4995368;28;8851;-76
2022/11/05 06:58:37;;;;;;;;;47.00;40.00;;;;;18.61;62.33;98540.88;5044559;28;9633;-77
2022/11/05 07:01:09;;;;;;;;;56.25;46.50;;;;;18.49;62.98;98544.16;5040903;28;8922;-77
2022/11/05 07:03:39;;;;;;;;;50.00;41.75;;;;;18.30;63.77;98534.47;5034460;28;8849;-79
2022/11/05 07:06:08;;;;;;;;;50.50;42.50;;;;;18.40;63.39;98534.03;5055365;28;8841;-78
2022/11/05 07:08:37;;;;;;;;;50.75;42.25;;;;;18.38;63.29;98538.53;5043908;28;8853;-77
2022/11/05 07:11:07;;;;;;;;;52.75;43.50;;;;;18.44;63.58;98535.59;5061965;28;8853;-78
2022/11/05 07:13:35;;;;;;;;;50.25;40.25;;;;;18.57;63.37;98534.06;5057735;28;8914;-78
2022/11/05 07:16:04;;;;;;;;;45.25;39.00;;;;;18.68;62.96;98537.03;5060995;28;8860;-78
2022/11/05 07:18:34;;;;;;;;;47.50;38.50;;;;;18.82;62.77;98532.84;5054566;28;8857;-78
2022/11/05 07:21:03;;;;;;;;;52.00;42.25;;;;;18.93;62.42;98534.97;5058542;28;8891;-78
2022/11/05 07:23:32;;;;;;;;;51.00;42.00;;;;;19.00;62.01;98533.72;5068978;28;8942;-78
2022/11/05 07:26:01;;;;;;;;;48.75;39.75;;;;;19.04;62.20;98532.63;5069411;28;8849;-80
2022/11/05 07:28:29;;;;;;;;;44.75;38.50;;;;;19.12;62.08;98537.50;5066855;28;8881;-79
2022/11/05 07:30:59;;;;;;;;;54.25;44.00;;;;;19.14;61.64;98544.41;5065236;28;8852;-79
2022/11/05 07:33:27;;;;;;;;;49.50;42.00;;;;;19.16;61.26;98534.63;5057161;28;8879;-79
2022/11/05 07:36:05;;;;;;;;;51.25;40.25;;;;;19.19;60.82;98534.47;5056677;28;8872;-78
2022/11/05 07:38:34;;;;;;;;;53.00;43.75;;;;;19.20;61.01;98532.69;5035377;28;8921;-79
2022/11/05 07:41:03;;;;;;;;;53.25;43.50;;;;;19.18;61.29;98535.41;5064658;28;8857;-80
2022/11/05 07:43:31;;;;;;;;;53.25;43.25;;;;;19.26;61.50;98530.59;5025865;28;8891;-79
2022/11/05 07:46:00;;;;;;;;;50.25;43.00;;;;;19.37;61.33;98537.09;5051817;28;8985;-79
2022/11/05 07:48:28;;;;;;;;;52.50;43.25;;;;;19.43;61.14;98537.63;5032038;28;8985;-79
2022/11/05 07:50:57;;;;;;;;;54.00;45.00;;;;;19.40;60.95;98542.22;5050772;28;8879;-78
2022/11/05 07:53:27;;;;;;;;;54.75;44.00;;;;;19.51;60.92;98536.34;5025088;28;8965;-77
2022/11/05 07:55:57;;;;;;;;;58.50;46.75;;;;;19.53;60.53;98539.75;5046905;28;8881;-78
2022/11/05 07:58:26;;;;;;;;;57.75;45.25;;;;;19.03;61.61;98552.03;5046614;28;8860;-79
2022/11/05 08:00:56;;;;;;;;;59.00;47.75;;;;;19.03;62.36;98558.19;5022101;28;8867;-80
2022/11/05 08:03:25;;;;;;;;;58.50;48.25;;;;;19.27;62.09;98548.13;5033126;28;9625;-78
2022/11/05 08:05:54;;;;;;;;;57.25;45.75;;;;;19.43;61.42;98550.84;5040696;28;8871;-78
2022/11/05 08:08:23;;;;;;;;;57.25;45.25;;;;;19.56;61.15;98539.59;5053744;28;8864;-77
2022/11/05 08:10:53;;;;;;;;;60.50;46.00;;;;;19.72;61.15;98545.81;5061082;28;8952;-77
2022/11/05 08:13:22;;;;;;;;;55.25;45.25;;;;;19.83;60.24;98548.72;5052417;28;8857;-77
2022/11/05 08:15:51;;;;;;;;;53.25;44.50;;;;;19.85;59.94;98560.09;5052659;28;8852;-78
2022/11/05 08:18:20;;;;;;;;;55.25;44.75;;;;;19.67;60.25;98553.94;5049425;28;8866;-77
2022/11/05 08:20:48;;;;;;;;;60.75;47.50;;;;;19.03;62.78;98565.25;5045558;28;8885;-75
2022/11/05 08:23:17;;;;;;;;;54.50;44.25;;;;;18.08;66.82;98578.66;5036833;28;8902;-77
2022/11/05 08:25:46;;;;;;;;;55.00;45.50;;;;;17.25;70.63;98583.19;5051880;28;8869;-79
2022/11/05 08:28:16;;;;;;;;;56.50;46.50;;;;;17.39;71.31;98585.25;5051951;28;8884;-75
2022/11/05 08:30:49;;;;;;;;;59.50;48.50;;;;;17.27;71.46;98591.03;5034696;28;8875;-81
2022/11/05 08:33:18;;;;;;;;;55.25;44.50;;;;;17.20;72.31;98593.09;5048226;28;8871;-77
2022/11/05 08:35:47;;;;;;;;;60.00;48.50;;;;;17.04;73.08;98592.88;5051382;28;8865;-76
2022/11/05 08:38:17;;;;;;;;;64.50;49.75;;;;;17.15;72.42;98588.00;5042407;28;9621;-80
2022/11/05 08:40:54;;;;;;;;;62.25;48.00;;;;;17.05;73.16;98599.00;5038933;28;8966;-78
2022/11/05 08:43:25;;;;;;;;;58.25;46.25;;;;;16.57;74.80;98606.19;5055578;28;8845;-78
2022/11/05 08:45:55;;;;;;;;;65.25;52.50;;;;;16.77;74.66;98595.72;5045540;28;8875;-77
2022/11/05 08:48:24;;;;;;;;;51.00;43.75;;;;;16.84;73.54;98599.00;5049837;28;8852;-76
2022/11/05 08:50:53;;;;;;;;;58.50;47.50;;;;;16.59;74.71;98601.72;5040942;28;8926;-79
2022/11/05 08:53:21;;;;;;;;;60.25;49.75;;;;;16.40;75.71;98608.63;5058972;28;8834;-78
2022/11/05 08:55:50;;;;;;;;;66.25;51.75;;;;;16.52;75.53;98601.13;5056304;28;8857;-79
2022/11/05 08:58:19;;;;;;;;;67.00;52.50;;;;;16.54;76.12;98607.19;5057054;28;8958;-80
2022/11/05 09:00:50;;;;;;;;;63.25;50.25;;;;;16.43;76.28;98626.94;5061350;28;8966;-80
2022/11/05 09:03:19;;;;;;;;;65.00;52.75;;;;;16.03;78.21;98625.81;5065751;28;8869;-80
2022/11/05 09:05:48;;;;;;;;;63.25;51.50;;;;;16.11;78.58;98631.69;5058630;28;8857;-80
2022/11/05 09:08:18;;;;;;;;;63.75;50.00;;;;;16.31;76.91;98636.16;5052880;28;8858;-78
2022/11/05 09:10:49;;;;;;;;;63.50;50.50;;;;;16.42;76.53;98635.75;5043749;28;8860;-80
2022/11/05 09:13:18;;;;;;;;;61.00;49.75;;;;;16.63;75.27;98647.19;5054382;28;9618;-79
2022/11/05 09:15:50;;;;;;;;;63.75;50.50;;;;;17.16;72.82;98638.91;5029529;28;8885;-79
2022/11/05 09:18:20;;;;;;;;;60.75;49.25;;;;;17.54;71.30;98647.84;5019739;28;8836;-77
2022/11/05 09:20:48;;;;;;;;;59.75;48.50;;;;;17.99;70.46;98656.44;5006517;28;8972;-77
2022/11/05 09:23:17;;;;;;;;;57.75;48.00;;;;;18.26;69.24;98656.97;5051057;28;9069;-79
2022/11/05 09:25:46;;;;;;;;;64.25;50.50;;;;;18.47;67.42;98647.19;5048039;28;8945;-77
2022/11/05 09:28:18;;;;;;;;;63.50;50.25;;;;;18.73;66.61;98649.50;5047990;28;8857;-76
2022/11/05 09:30:50;;;;;;;;;69.25;54.75;;;;;18.90;65.99;98649.56;5032822;28;8873;-78
2022/11/05 09:33:22;;;;;;;;;70.00;55.00;;;;;18.29;67.53;98645.41;5043678;28;8856;-76
2022/11/05 09:35:52;;;;;;;;;65.00;51.75;;;;;18.50;66.23;98648.81;5025215;28;8941;-77
2022/11/05 09:38:21;;;;;;;;;62.75;50.00;;;;;18.81;65.64;98648.25;4991148;28;8888;-80
2022/11/05 09:40:57;;;;;;;;;60.75;48.25;;;;;18.76;65.59;98659.94;5026277;28;8883;-71
2022/11/05 09:43:30;;;;;;;;;57.00;45.75;;;;;18.78;65.78;98661.56;5009812;28;8867;-76
2022/11/05 09:46:07;;;;;;;;;63.00;51.00;;;;;19.03;65.25;98665.66;5017990;28;8959;-77
2022/11/05 09:48:39;;;;;;;;;58.75;48.25;;;;;19.06;64.11;98666.38;4997747;28;8890;-81
2022/11/05 09:51:11;;;;;;;;;59.25;47.00;;;;;18.56;66.09;98658.22;5013129;28;8978;-81
2022/11/05 09:53:41;;;;;;;;;60.25;49.50;;;;;18.59;65.68;98663.38;5027391;28;8953;-81
2022/11/05 09:56:20;;;;;;;;;57.50;46.00;;;;;18.74;64.66;98662.63;5040508;28;9009;-80
2022/11/05 09:58:54;;;;;;;;;59.50;47.25;;;;;18.74;64.35;98652.06;5007207;28;8847;-81
2022/11/05 10:01:29;;;;;;;;;55.00;46.00;;;;;18.99;64.74;98664.13;5014466;28;8968;-82
2022/11/05 10:04:02;;;;;;;;;54.50;44.50;;;;;18.91;63.78;98661.84;4996758;28;8860;-82
2022/11/05 10:06:31;;;;;;;;;55.25;44.25;;;;;18.60;65.58;98673.88;5010960;28;9001;-80
2022/11/05 10:09:06;;;;;;;;;57.25;44.25;;;;;18.16;66.92;98686.47;5012053;28;8905;-79
2022/11/05 10:11:41;;;;;;;;;57.50;46.75;;;;;17.81;68.33;98692.38;5025535;28;8946;-79
2022/11/05 10:14:16;;;;;;;;;68.25;49.75;;;;;17.38;70.63;98686.31;5028948;28;8890;-80
2022/11/05 10:16:52;;;;;;;;;63.50;51.25;;;;;17.37;69.73;98694.28;5041984;28;8886;-83
2022/11/05 10:19:24;;;;;;;;;64.00;50.00;;;;;16.83;72.20;98691.22;5005831;28;8880;-77
2022/11/05 10:21:56;;;;;;;;;67.00;53.00;;;;;16.41;73.81;98705.94;5018486;28;8882;-81
2022/11/05 10:24:35;;;;;;;;;63.25;50.75;;;;;15.95;76.09;98705.00;5028728;28;8852;-81
2022/11/05 10:27:05;;;;;;;;;63.75;50.00;;;;;15.66;77.79;98720.00;5014389;28;8936;-77
2022/11/05 10:29:35;;;;;;;;;68.75;53.75;;;;;15.57;78.65;98717.69;5015213;28;8893;-79
2022/11/05 10:32:06;;;;;;;;;71.75;53.00;;;;;15.65;77.96;98720.94;5012978;28;8858;-80
2022/11/05 10:34:39;;;;;;;;;67.00;51.50;;;;;15.53;78.92;98722.19;5049288;28;8846;-80
2022/11/05 10:37:11;;;;;;;;;65.75;51.00;;;;;15.90;76.89;98712.22;5014422;28;9000;-80
2022/11/05 10:39:40;;;;;;;;;62.75;48.25;;;;;15.36;77.77;98709.63;5046292;28;8868;-81
2022/11/05 10:42:30;;;;;;;;;60.75;49.00;;;;;15.46;77.15;98704.91;5049257;28;8866;-81
2022/11/05 10:45:07;;;;;;;;;65.75;49.75;;;;;15.26;77.71;98705.59;5031539;28;8886;-82
2022/11/05 10:48:20;;;;;;;;;62.00;49.25;;;;;14.41;81.13;98716.06;4992252;28;9078;-79
2022/11/05 10:50:50;;;;;;;;;64.00;47.50;;;;;14.35;81.91;98721.50;4992679;28;8941;-79
2022/11/05 10:53:22;;;;;;;;;49.75;42.25;;;;;14.66;80.97;98722.38;5025623;28;8968;-77
2022/11/05 10:55:52;;;;;;;;;52.25;41.75;;;;;14.85;78.26;98726.16;5044816;28;8845;-79
2022/11/05 10:58:27;;;;;;;;;45.50;36.50;;;;;15.02;76.99;98738.75;5047867;28;8981;-80
2022/11/05 11:01:10;;;;;;;;;37.75;33.75;;;;;15.47;74.91;98738.16;5010735;28;8878;-80
2022/11/05 11:03:46;;;;;;;;;33.80;33.00;;;;;15.68;73.28;98739.22;5011259;28;9804;-80
2022/11/05 11:06:23;;;;;;;;;33.00;28.60;;;;;15.38;74.21;98735.84;5038472;28;8851;-80
2022/11/05 11:08:53;;;;;;;;;36.20;33.00;;;;;15.53;71.93;98745.00;5029038;28;8856;-80
2022/11/05 11:11:28;;;;;;;;;38.25;34.75;;;;;15.79;71.14;98741.50;5012362;28;8859;-80
2022/11/05 11:14:02;;;;;;;;;38.80;34.60;;;;;15.42;72.22;98737.44;5033591;28;8867;-79
2022/11/05 11:16:38;;;;;;;;;41.50;35.00;;;;;14.79;75.24;98729.81;5027098;28;8969;-80
2022/11/05 11:19:25;;;;;;;;;30.80;29.40;;;;;14.48;76.80;98731.63;5041880;28;8842;-77
2022/11/05 11:22:16;;;;;;;;;35.20;33.20;;;;;14.16;77.58;98728.19;5000572;28;8867;-80
2022/11/05 11:24:47;;;;;;;;;33.60;28.80;;;;;14.17;77.60;98732.50;5054378;28;8924;-78
2022/11/05 11:27:22;;;;;;;;;33.20;30.40;;;;;14.27;76.76;98717.38;5062284;28;8841;-79
2022/11/05 11:29:56;;;;;;;;;28.60;24.40;;;;;14.55;76.04;98710.41;5046433;28;8881;-79
2022/11/05 11:32:31;;;;;;;;;31.00;28.20;;;;;14.43;75.52;98729.16;5028962;28;9562;-79
2022/11/05 11:35:02;;;;;;;;;28.20;26.20;;;;;14.78;74.07;98725.50;5035933;28;8976;-79
2022/11/05 11:37:36;;;;;;;;;28.40;26.80;;;;;15.04;73.57;98747.44;5045331;28;8930;-80
2022/11/05 11:40:14;;;;;;;;;30.60;27.20;;;;;15.27;72.57;98749.31;5029011;28;8980;-79
2022/11/05 11:42:47;;;;;;;;;30.80;28.60;;;;;15.52;71.01;98749.41;5030384;28;8940;-79
2022/11/05 11:45:18;;;;;;;;;28.20;27.20;;;;;15.25;71.77;98766.03;5034466;28;8873;-79
2022/11/05 11:47:49;;;;;;;;;21.20;20.20;;;;;15.55;70.59;98761.56;5061987;28;9591;-78
2022/11/05 11:50:39;;;;;;;;;21.40;20.60;;;;;15.43;71.16;98772.50;5047899;28;8982;-78
2022/11/05 11:53:34;;;;;;;;;17.20;16.00;;;;;15.49;70.47;98765.25;5032322;28;10187;-78
2022/11/05 11:56:22;;;;;;;;;22.60;22.40;;;;;15.56;69.58;98758.88;5001889;28;8973;-79
2022/11/05 11:58:53;;;;;;;;;21.80;19.40;;;;;15.38;69.91;98756.84;5010335;28;10950;-78
2022/11/05 12:02:10;;;;;;;;;21.40;20.00;;;;;14.93;71.53;98750.41;4991054;28;8879;-77
2022/11/05 12:05:05;;;;;;;;;22.00;19.40;;;;;14.49;72.46;98751.72;4914424;28;9627;-80
2022/11/05 12:07:48;;;;;;;;;19.80;18.00;;;;;14.10;75.20;98746.69;4881976;29;8968;-78
2022/11/05 12:10:43;;;;;;;;;22.00;20.00;;;;;13.61;77.30;98749.75;4910546;29;8986;-77
2022/11/05 12:13:45;;;;;;;;;17.00;15.80;;;;;13.86;75.63;98754.34;4897410;29;8883;-79
2022/11/05 12:16:25;;;;;;;;;26.60;26.40;;;;;13.67;77.67;98763.56;4916447;29;8893;-79
2022/11/05 12:19:03;;;;;;;;;20.60;19.40;;;;;13.59;77.32;98766.38;4918324;28;8841;-80
2022/11/05 12:21:42;;;;;;;;;27.40;25.60;;;;;13.78;76.65;98751.03;4931274;29;8995;-79
2022/11/05 12:24:55;;;;;;;;;24.40;23.00;;;;;13.91;76.28;98741.94;4922185;29;8976;-78
2022/11/05 12:27:44;;;;;;;;;18.20;16.20;;;;;13.88;75.96;98749.91;4900638;28;8896;-78
2022/11/05 12:30:15;;;;;;;;;17.60;15.00;;;;;13.94;74.99;98739.25;4878954;29;9683;-80
2022/11/05 12:33:04;;;;;;;;;31.60;28.80;;;;;13.30;77.68;98740.91;4894675;29;8878;-80
2022/11/05 12:35:45;;;;;;;;;18.00;18.00;;;;;13.81;76.39;98767.53;4894176;29;8973;-80